createdAt,value
2023-04-21T00:02:19.790Z,25.52
2023-04-21T00:04:46.595Z,27.98
2023-04-21T00:07:14.727Z,27.25
2023-04-21T00:09:41.885Z,24.40
2023-04-21T00:12:08.622Z,25.30
2023-04-21T00:14:35.214Z,26.00
2023-04-21T00:17:01.845Z,25.08
2023-04-21T00:19:29.621Z,24.30
2023-04-21T00:21:58.817Z,25.48
2023-04-21T00:24:26.080Z,24.67
2023-04-21T00:26:52.765Z,25.98
2023-04-21T00:29:19.596Z,26.30
2023-04-21T00:31:46.545Z,26.20
2023-04-21T00:34:13.172Z,26.73
2023-04-21T00:36:39.756Z,24.48
2023-04-21T00:39:06.400Z,25.80
2023-04-21T00:41:35.238Z,24.88
2023-04-21T00:44:06.816Z,25.48
2023-04-21T00:46:34.514Z,24.60
2023-04-21T00:49:05.452Z,26.17
2023-04-21T00:51:34.179Z,23.75
2023-04-21T00:54:03.804Z,26.30
2023-04-21T00:56:32.631Z,26.58
2023-04-21T00:59:00.407Z,26.15
2023-04-21T01:01:29.793Z,27.50
2023-04-21T01:04:00.978Z,25.15
2023-04-21T01:06:34.901Z,24.90
2023-04-21T01:09:02.029Z,26.73
2023-04-21T01:11:28.650Z,25.48
2023-04-21T01:13:55.948Z,26.58
2023-04-21T01:16:24.032Z,27.58
2023-04-21T01:18:53.282Z,26.65
2023-04-21T01:21:21.618Z,26.88
2023-04-21T01:23:48.502Z,27.13
2023-04-21T01:26:19.046Z,27.23
2023-04-21T01:28:47.624Z,26.63
2023-04-21T01:31:15.185Z,24.40
2023-04-21T01:33:42.169Z,25.15
2023-04-21T01:36:09.813Z,25.08
2023-04-21T01:38:40.956Z,26.67
2023-04-21T01:41:08.678Z,24.40
2023-04-21T01:43:35.548Z,25.42
2023-04-21T01:46:02.314Z,25.27
2023-04-21T01:48:29.046Z,24.70
2023-04-21T01:50:55.672Z,23.73
2023-04-21T01:53:22.379Z,23.90
2023-04-21T01:55:49.023Z,25.48
2023-04-21T01:58:15.675Z,25.08
2023-04-21T02:00:42.228Z,24.20
2023-04-21T02:03:08.967Z,23.92
2023-04-21T02:05:35.617Z,24.40
2023-04-21T02:08:02.238Z,24.83
2023-04-21T02:10:28.850Z,23.42
2023-04-21T02:12:55.583Z,24.90
2023-04-21T02:15:22.191Z,25.23
2023-04-21T02:17:48.811Z,26.17
2023-04-21T02:20:15.423Z,26.20
2023-04-21T02:22:42.105Z,27.30
2023-04-21T02:25:09.029Z,25.42
2023-04-21T02:27:35.718Z,26.80
2023-04-21T02:30:02.482Z,28.63
2023-04-21T02:32:29.360Z,28.95
2023-04-21T02:34:56.191Z,27.42
2023-04-21T02:37:22.914Z,26.25
2023-04-21T02:39:49.546Z,25.30
2023-04-21T02:42:16.124Z,25.67
2023-04-21T02:44:43.233Z,26.67
2023-04-21T02:47:09.877Z,26.27
2023-04-21T02:49:41.293Z,28.60
2023-04-21T02:52:07.897Z,25.30
2023-04-21T02:54:34.544Z,25.92
2023-04-21T02:57:01.963Z,26.08
2023-04-21T02:59:29.029Z,24.33
2023-04-21T03:01:55.734Z,25.33
2023-04-21T03:04:24.280Z,24.73
2023-04-21T03:06:52.101Z,25.48
2023-04-21T03:09:19.090Z,27.05
2023-04-21T03:11:45.915Z,28.02
2023-04-21T03:14:12.559Z,29.05
2023-04-21T03:16:39.187Z,29.70
2023-04-21T03:19:05.831Z,28.15
2023-04-21T03:21:32.531Z,29.25
2023-04-21T03:23:59.168Z,29.83
2023-04-21T03:26:25.875Z,30.25
2023-04-21T03:28:52.492Z,28.73
2023-04-21T03:31:19.136Z,27.83
2023-04-21T03:33:45.887Z,29.20
2023-04-21T03:36:12.499Z,28.00
2023-04-21T03:38:39.155Z,29.15
2023-04-21T03:41:05.883Z,29.25
2023-04-21T03:43:32.484Z,28.10
2023-04-21T03:45:59.227Z,27.40
2023-04-21T03:48:27.498Z,29.95
2023-04-21T03:50:54.085Z,28.00
2023-04-21T03:53:20.780Z,26.98
2023-04-21T03:55:50.094Z,26.73
2023-04-21T03:58:17.133Z,26.33
2023-04-21T04:00:43.769Z,28.30
2023-04-21T04:03:10.432Z,27.92
2023-04-21T04:05:37.270Z,27.40
2023-04-21T04:08:04.092Z,29.55
2023-04-21T04:10:30.736Z,29.85
2023-04-21T04:12:57.317Z,29.45
2023-04-21T04:15:23.893Z,29.05
2023-04-21T04:17:50.796Z,28.95
2023-04-21T04:20:17.440Z,29.50
2023-04-21T04:22:44.070Z,29.60
2023-04-21T04:25:12.764Z,28.77
2023-04-21T04:27:39.450Z,27.75
2023-04-21T04:30:07.010Z,26.42
2023-04-21T04:32:34.232Z,28.70
2023-04-21T04:35:00.825Z,28.92
2023-04-21T04:37:28.077Z,27.20
2023-04-21T04:39:54.739Z,26.70
2023-04-21T04:42:21.334Z,28.10
2023-04-21T04:44:48.062Z,26.52
2023-04-21T04:47:14.837Z,28.08
2023-04-21T04:49:41.448Z,28.65
2023-04-21T04:52:08.149Z,26.95
2023-04-21T04:54:34.771Z,28.50
2023-04-21T04:57:02.362Z,28.23
2023-04-21T04:59:30.448Z,29.20
2023-04-21T05:01:57.564Z,27.95
2023-04-21T05:04:24.548Z,30.20
2023-04-21T05:06:52.046Z,28.25
2023-04-21T05:09:18.672Z,28.83
2023-04-21T05:11:45.293Z,27.77
2023-04-21T05:14:11.977Z,28.48
2023-04-21T05:16:38.658Z,29.90
2023-04-21T05:19:05.522Z,27.45
2023-04-21T05:21:33.358Z,26.60
2023-04-21T05:24:00.872Z,26.63
2023-04-21T05:26:28.971Z,27.25
2023-04-21T05:28:56.648Z,27.98
2023-04-21T05:31:24.803Z,27.33
2023-04-21T05:33:51.794Z,25.15
2023-04-21T05:36:20.120Z,28.17
2023-04-21T05:38:46.865Z,28.73
2023-04-21T05:41:13.451Z,26.30
2023-04-21T05:43:40.050Z,26.65
2023-04-21T05:46:10.911Z,23.65
2023-04-21T05:48:37.554Z,23.15
2023-04-21T05:51:11.405Z,21.77
2023-04-21T05:56:06.256Z,18.83
2023-04-21T05:58:34.081Z,17.90
2023-04-21T06:01:00.686Z,19.48
2023-04-21T06:03:27.442Z,19.95
2023-04-21T06:05:55.338Z,19.45
2023-04-21T06:08:22.797Z,19.73
2023-04-21T06:10:49.795Z,20.08
2023-04-21T06:13:16.841Z,21.08
2023-04-21T06:15:43.902Z,20.70
2023-04-21T06:18:11.109Z,20.27
2023-04-21T06:20:37.825Z,20.60
2023-04-21T06:23:05.004Z,18.73
2023-04-21T06:25:32.018Z,20.40
2023-04-21T06:27:59.039Z,20.08
2023-04-21T06:30:25.658Z,20.55
2023-04-21T06:32:52.355Z,17.85
2023-04-21T06:35:20.388Z,19.48
2023-04-21T06:37:47.461Z,17.52
2023-04-21T06:40:16.033Z,18.08
2023-04-21T06:42:42.900Z,16.63
2023-04-21T06:45:10.330Z,17.80
2023-04-21T06:47:37.530Z,18.08
2023-04-21T06:50:04.781Z,17.75
2023-04-21T06:52:31.983Z,19.20
2023-04-21T06:54:59.044Z,18.83
2023-04-21T06:57:26.156Z,19.95
2023-04-21T06:59:53.408Z,19.02
2023-04-21T07:02:20.594Z,17.70
2023-04-21T07:04:47.716Z,17.98
2023-04-21T07:07:14.897Z,17.63
2023-04-21T07:09:41.983Z,18.88
2023-04-21T07:12:09.019Z,18.02
2023-04-21T07:14:36.067Z,18.20
2023-04-21T07:17:03.322Z,18.60
2023-04-21T07:19:30.484Z,18.75
2023-04-21T07:21:58.261Z,17.85
2023-04-21T07:24:25.343Z,18.63
2023-04-21T07:26:52.359Z,19.63
2023-04-21T07:29:19.603Z,17.90
2023-04-21T07:31:48.157Z,16.50
2023-04-21T07:34:15.402Z,16.58
2023-04-21T07:36:42.420Z,17.17
2023-04-21T07:39:09.471Z,17.88
2023-04-21T07:41:36.193Z,17.35
2023-04-21T07:44:02.858Z,16.02
2023-04-21T07:46:32.756Z,15.45
2023-04-21T07:49:02.786Z,14.43
2023-04-21T07:51:31.631Z,14.57
2023-04-21T07:53:58.284Z,13.98
2023-04-21T07:56:24.876Z,13.35
2023-04-21T07:58:51.519Z,13.55
2023-04-21T08:01:18.190Z,14.07
2023-04-21T08:03:45.009Z,13.32
2023-04-21T08:06:12.213Z,16.15
2023-04-21T08:08:38.961Z,14.35
2023-04-21T08:11:05.669Z,13.27
2023-04-21T08:13:32.437Z,13.32
2023-04-21T08:15:59.109Z,11.50
2023-04-21T08:18:25.792Z,12.02
2023-04-21T08:20:52.704Z,11.98
2023-04-21T08:23:19.970Z,11.68
2023-04-21T08:25:46.681Z,11.77
2023-04-21T08:28:15.442Z,12.85
2023-04-21T08:30:42.820Z,12.10
2023-04-21T08:33:13.552Z,12.25
2023-04-21T08:35:55.049Z,13.25
2023-04-21T08:38:28.402Z,11.82
2023-04-21T08:40:56.506Z,11.98
2023-04-21T08:43:23.520Z,11.88
2023-04-21T08:45:51.529Z,12.35
2023-04-21T08:48:20.094Z,11.48
2023-04-21T08:50:47.691Z,10.80
2023-04-21T08:53:14.753Z,11.25
2023-04-21T08:55:42.542Z,12.43
2023-04-21T08:58:09.564Z,12.93
2023-04-21T09:00:36.978Z,11.95
2023-04-21T09:03:10.736Z,11.00
2023-04-21T09:05:43.838Z,10.85
2023-04-21T09:08:12.311Z,11.05
2023-04-21T09:10:46.505Z,11.48
2023-04-21T09:13:13.688Z,9.32
2023-04-21T09:15:41.710Z,11.18
2023-04-21T09:18:14.830Z,10.88
2023-04-21T09:20:43.843Z,10.53
2023-04-21T09:23:11.371Z,9.77
2023-04-21T09:25:42.539Z,8.38
2023-04-21T09:28:10.451Z,9.00
2023-04-21T09:30:38.637Z,8.30
2023-04-21T09:33:13.231Z,9.50
2023-04-21T09:35:43.501Z,9.25
2023-04-21T09:38:11.915Z,10.85
2023-04-21T09:40:40.295Z,9.63
2023-04-21T09:43:07.919Z,10.85
2023-04-21T09:45:40.103Z,11.88
2023-04-21T09:48:09.937Z,10.88
2023-04-21T09:53:12.049Z,11.52
2023-04-21T09:55:41.590Z,12.35
2023-04-21T09:58:10.554Z,10.05
2023-04-21T10:00:39.740Z,11.38
2023-04-21T10:03:10.512Z,9.88
2023-04-21T10:05:42.186Z,11.02
2023-04-21T10:08:11.717Z,11.07
2023-04-21T10:10:39.557Z,11.68
2023-04-21T10:13:06.690Z,10.13
2023-04-21T10:15:35.674Z,9.38
2023-04-21T10:18:16.245Z,10.73
2023-04-21T10:21:02.002Z,11.00
2023-04-21T10:23:48.651Z,10.57
2023-04-21T10:26:15.672Z,9.68
2023-04-21T10:28:43.734Z,9.75
2023-04-21T10:31:20.203Z,9.52
2023-04-21T10:34:06.238Z,9.38
2023-04-21T10:36:35.075Z,9.10
2023-04-21T10:39:03.840Z,9.93
2023-04-21T10:41:31.774Z,9.75
2023-04-21T10:44:19.222Z,9.00
2023-04-21T10:46:47.622Z,9.65
2023-04-21T10:49:24.997Z,9.70
2023-04-21T10:52:02.386Z,11.68
2023-04-21T10:54:41.640Z,12.02
2023-04-21T10:57:10.072Z,12.93
2023-04-21T10:59:37.131Z,13.88
2023-04-21T11:02:06.739Z,13.63
2023-04-21T11:04:34.522Z,14.50
2023-04-21T11:07:08.906Z,14.88
2023-04-21T11:09:36.608Z,14.30
2023-04-21T11:12:04.946Z,14.63
2023-04-21T11:14:33.070Z,16.27
2023-04-21T11:17:01.078Z,15.90
2023-04-21T11:19:28.537Z,15.05
2023-04-21T11:21:55.764Z,14.65
2023-04-21T11:24:22.901Z,13.68
2023-04-21T11:26:50.161Z,15.65
2023-04-21T11:29:17.623Z,15.48
2023-04-21T11:31:46.495Z,14.25
2023-04-21T11:34:15.520Z,13.63
2023-04-21T11:36:46.462Z,13.65
2023-04-21T11:39:21.383Z,13.25
2023-04-21T11:41:50.073Z,12.60
2023-04-21T11:44:35.419Z,13.27
2023-04-21T11:47:13.111Z,13.07
2023-04-21T11:49:47.389Z,13.50
2023-04-21T11:52:42.101Z,12.35
2023-04-21T11:55:15.316Z,13.00
2023-04-21T11:57:42.446Z,13.50
2023-04-21T12:00:14.416Z,12.40
2023-04-21T12:02:41.434Z,13.25
2023-04-21T12:05:13.368Z,12.52
2023-04-21T12:07:44.611Z,12.68
2023-04-21T12:10:11.827Z,11.52
2023-04-21T12:12:39.667Z,10.30
2023-04-21T12:15:07.580Z,11.02
2023-04-21T12:17:49.936Z,11.75
2023-04-21T12:20:17.983Z,11.90
2023-04-21T12:22:45.263Z,10.70
2023-04-21T12:25:12.461Z,11.50
2023-04-21T12:27:48.180Z,12.35
2023-04-21T12:30:15.487Z,13.27
2023-04-21T12:32:42.599Z,12.13
2023-04-21T12:35:10.048Z,12.15
2023-04-21T12:37:38.462Z,12.77
2023-04-21T12:40:05.797Z,12.20
2023-04-21T12:42:34.707Z,10.63
2023-04-21T12:45:03.272Z,10.32
2023-04-21T12:47:30.639Z,9.68
2023-04-21T12:49:58.671Z,8.77
2023-04-21T12:52:26.153Z,9.55
2023-04-21T12:54:53.179Z,7.43
2023-04-21T12:57:20.480Z,6.07
2023-04-21T12:59:47.591Z,5.72
2023-04-21T13:02:14.802Z,5.50
2023-04-21T13:04:42.513Z,5.00
2023-04-21T13:07:10.541Z,4.47
2023-04-21T13:09:37.698Z,4.53
2023-04-21T13:12:04.871Z,3.85
2023-04-21T13:14:32.386Z,3.60
2023-04-21T13:16:59.847Z,3.42
2023-04-21T13:19:28.575Z,3.45
2023-04-21T13:21:56.359Z,3.45
2023-04-21T13:24:23.420Z,3.08
2023-04-21T13:26:50.603Z,2.40
2023-04-21T13:29:17.690Z,3.28
2023-04-21T13:31:46.630Z,3.72
2023-04-21T13:34:13.718Z,2.97
2023-04-21T13:36:41.152Z,3.00
2023-04-21T13:39:11.751Z,2.63
2023-04-21T13:41:38.984Z,3.20
2023-04-21T13:44:06.231Z,2.58
2023-04-21T13:46:33.360Z,2.90
2023-04-21T13:49:00.730Z,3.30
2023-04-21T13:51:28.025Z,2.97
2023-04-21T13:53:55.268Z,3.08
2023-04-21T13:56:22.569Z,3.00
2023-04-21T13:58:49.808Z,3.00
2023-04-21T14:01:18.049Z,3.00
2023-04-21T14:03:47.099Z,2.75
2023-04-21T14:06:14.380Z,2.70
2023-04-21T14:08:41.725Z,2.78
2023-04-21T14:11:08.837Z,3.63
2023-04-21T14:13:44.680Z,3.70
2023-04-21T14:16:19.334Z,3.87
2023-04-21T14:18:47.384Z,3.47
2023-04-21T14:21:14.559Z,3.58
2023-04-21T14:23:41.580Z,3.53
2023-04-21T14:26:08.768Z,3.45
2023-04-21T14:28:35.887Z,3.42
2023-04-21T14:31:04.187Z,3.22
2023-04-21T14:33:33.306Z,2.95
2023-04-21T14:36:00.721Z,2.95
2023-04-21T14:38:29.443Z,2.90
2023-04-21T14:40:56.513Z,2.97
2023-04-21T14:43:23.737Z,2.85
2023-04-21T14:45:51.014Z,2.83
2023-04-21T14:48:18.235Z,2.63
2023-04-21T14:50:45.384Z,2.67
2023-04-21T14:53:12.453Z,2.53
2023-04-21T14:55:39.618Z,2.85
2023-04-21T14:58:07.294Z,2.63
2023-04-21T15:00:36.339Z,2.80
2023-04-21T15:03:04.090Z,2.67
2023-04-21T15:05:32.501Z,2.33
2023-04-21T15:07:59.725Z,2.22
2023-04-21T15:10:26.787Z,2.38
2023-04-21T15:12:53.854Z,2.50
2023-04-21T15:15:20.970Z,2.22
2023-04-21T15:17:48.391Z,1.88
2023-04-21T15:20:15.660Z,2.30
2023-04-21T15:22:42.780Z,2.05
2023-04-21T15:25:09.960Z,2.72
2023-04-21T15:27:37.178Z,2.50
2023-04-21T15:30:05.028Z,2.20
2023-04-21T15:32:32.280Z,2.20
2023-04-21T15:35:00.993Z,2.45
2023-04-21T15:37:28.111Z,2.33
2023-04-21T15:39:55.357Z,2.53
2023-04-21T15:42:23.451Z,2.65
2023-04-21T15:44:51.512Z,2.47
2023-04-21T15:47:18.620Z,2.90
2023-04-21T15:49:45.898Z,2.78
2023-04-21T15:52:13.868Z,2.55
2023-04-21T15:54:41.067Z,2.53
2023-04-21T15:57:08.216Z,2.63
2023-04-21T15:59:35.336Z,2.08
2023-04-21T16:02:02.550Z,2.33
2023-04-21T16:04:29.970Z,2.38
2023-04-21T16:06:57.233Z,2.22
2023-04-21T16:09:24.344Z,2.60
2023-04-21T16:11:51.864Z,2.55
2023-04-21T16:14:19.277Z,2.67
2023-04-21T16:16:46.535Z,2.80
2023-04-21T16:19:13.765Z,3.22
2023-04-21T16:21:41.957Z,3.58
2023-04-21T16:24:09.587Z,2.40
2023-04-21T16:26:36.919Z,3.08
2023-04-21T16:29:04.196Z,2.70
2023-04-21T16:31:31.624Z,2.60
2023-04-21T16:33:59.906Z,2.70
2023-04-21T16:36:32.250Z,2.20
2023-04-21T16:38:59.395Z,2.83
2023-04-21T16:41:26.713Z,2.60
2023-04-21T16:43:53.847Z,2.55
2023-04-21T16:46:21.119Z,2.65
2023-04-21T16:48:48.241Z,2.40
2023-04-21T16:51:15.440Z,2.13
2023-04-21T16:53:42.549Z,2.40
2023-04-21T16:56:09.978Z,2.72
2023-04-21T16:58:37.542Z,2.58
2023-04-21T17:01:05.136Z,2.22
2023-04-21T17:03:32.456Z,1.90
2023-04-21T17:05:59.710Z,2.65
2023-04-21T17:08:26.765Z,2.58
2023-04-21T17:10:55.390Z,2.67
2023-04-21T17:13:22.429Z,2.67
2023-04-21T17:15:49.593Z,2.33
2023-04-21T17:18:16.698Z,2.92
2023-04-21T17:20:43.793Z,2.50
2023-04-21T17:23:10.795Z,2.65
2023-04-21T17:25:38.160Z,2.45
2023-04-21T17:28:05.922Z,2.75
2023-04-21T17:30:35.595Z,2.72
2023-04-21T17:33:15.234Z,2.58
2023-04-21T17:35:55.743Z,2.90
2023-04-21T17:38:29.108Z,2.95
2023-04-21T17:40:56.352Z,2.78
2023-04-21T17:43:23.440Z,3.10
2023-04-21T17:45:51.266Z,3.33
2023-04-21T17:48:18.570Z,2.85
2023-04-21T17:50:45.745Z,2.92
2023-04-21T17:53:12.751Z,2.92
2023-04-21T17:55:40.261Z,2.88
2023-04-21T17:58:10.144Z,3.78
2023-04-21T18:00:38.791Z,3.22
2023-04-21T18:03:06.416Z,3.60
2023-04-21T18:05:34.326Z,3.65
2023-04-21T18:08:02.032Z,3.58
2023-04-21T18:10:29.893Z,3.38
2023-04-21T18:12:57.418Z,3.67
2023-04-21T18:15:24.774Z,3.17
2023-04-21T18:17:53.028Z,3.55
2023-04-21T18:20:20.367Z,3.67
2023-04-21T18:22:48.438Z,3.97
2023-04-21T18:25:17.385Z,3.38
2023-04-21T18:27:47.423Z,3.03
2023-04-21T18:30:14.549Z,3.72
2023-04-21T18:32:41.688Z,3.25
2023-04-21T18:35:08.944Z,4.35
2023-04-21T18:37:36.048Z,3.67
2023-04-21T18:40:05.496Z,3.70
2023-04-21T18:42:32.597Z,4.57
2023-04-21T18:45:02.190Z,4.60
2023-04-21T18:47:30.926Z,5.50
2023-04-21T18:49:58.273Z,4.78
2023-04-21T18:52:25.506Z,4.25
2023-04-21T18:54:52.515Z,4.85
2023-04-21T18:57:19.578Z,4.07
2023-04-21T18:59:46.592Z,4.30
2023-04-21T19:02:14.190Z,4.28
2023-04-21T19:04:43.573Z,4.45
2023-04-21T19:07:11.387Z,4.03
2023-04-21T19:09:38.692Z,4.45
2023-04-21T19:12:05.924Z,4.05
2023-04-21T19:14:45.650Z,3.80
2023-04-21T19:17:14.112Z,4.22
2023-04-21T19:19:41.619Z,3.97
2023-04-21T19:22:08.773Z,3.97
2023-04-21T19:24:36.328Z,3.22
2023-04-21T19:27:05.378Z,2.78
2023-04-21T19:29:32.974Z,2.33
2023-04-21T19:32:00.555Z,1.55
2023-04-21T19:34:27.667Z,1.55
2023-04-21T19:36:54.699Z,1.10
2023-04-21T19:39:21.811Z,1.60
2023-04-21T19:41:48.842Z,1.30
2023-04-21T19:44:15.927Z,1.30
2023-04-21T19:46:43.349Z,1.00
2023-04-21T19:49:13.986Z,0.80
2023-04-21T19:51:41.312Z,1.30
2023-04-21T19:54:11.938Z,1.23
2023-04-21T19:56:39.470Z,1.10
2023-04-21T19:59:06.537Z,1.10
2023-04-21T20:01:34.472Z,1.10
2023-04-21T20:04:03.365Z,1.30
2023-04-21T20:06:31.954Z,1.05
2023-04-21T20:08:59.032Z,1.10
2023-04-21T20:11:28.791Z,0.90
2023-04-21T20:13:56.279Z,1.00
2023-04-21T20:16:23.708Z,1.10
2023-04-21T20:18:50.753Z,1.50
2023-04-21T20:21:17.757Z,1.20
2023-04-21T20:23:44.807Z,1.10
2023-04-21T20:26:12.048Z,0.88
2023-04-21T20:28:39.146Z,1.02
2023-04-21T20:31:06.281Z,1.10
2023-04-21T20:33:33.367Z,1.55
2023-04-21T20:36:07.076Z,1.42
2023-04-21T20:38:34.813Z,1.90
2023-04-21T20:41:02.320Z,1.88
2023-04-21T20:43:32.933Z,1.40
2023-04-21T20:46:01.388Z,1.40
2023-04-21T20:48:28.502Z,1.48
2023-04-21T20:50:55.777Z,1.40
2023-04-21T20:53:22.875Z,1.40
2023-04-21T20:55:49.959Z,1.40
2023-04-21T20:58:17.300Z,1.42
2023-04-21T21:00:44.350Z,1.40
2023-04-21T21:03:13.739Z,1.40
2023-04-21T21:05:41.370Z,1.58
2023-04-21T21:08:09.028Z,1.27
2023-04-21T21:10:36.408Z,1.48
2023-04-21T21:13:03.768Z,1.75
2023-04-21T21:15:30.949Z,1.40
2023-04-21T21:17:58.242Z,2.13
2023-04-21T21:20:25.434Z,1.80
2023-04-21T21:22:52.536Z,2.30
2023-04-21T21:25:19.617Z,1.52
2023-04-21T21:27:47.018Z,1.90
2023-04-21T21:30:14.151Z,1.98
2023-04-21T21:32:41.232Z,1.80
2023-04-21T21:35:09.449Z,1.50
2023-04-21T21:37:37.166Z,1.50
2023-04-21T21:40:04.374Z,1.48
2023-04-21T21:42:31.388Z,1.45
2023-04-21T21:44:58.460Z,1.67
2023-04-21T21:47:26.075Z,1.48
2023-04-21T21:49:54.990Z,1.73
2023-04-21T21:52:22.271Z,1.60
2023-04-21T21:54:49.346Z,1.80
2023-04-21T21:57:16.784Z,1.83
2023-04-21T21:59:43.861Z,1.95
2023-04-21T22:02:11.001Z,1.90
2023-04-21T22:04:38.166Z,1.80
2023-04-21T22:07:05.285Z,1.73
2023-04-21T22:09:32.670Z,1.83
2023-04-21T22:11:59.679Z,2.50
2023-04-21T22:14:26.742Z,1.80
2023-04-21T22:16:53.822Z,2.33
2023-04-21T22:19:21.164Z,1.80
2023-04-21T22:21:48.241Z,3.20
2023-04-21T22:24:15.541Z,2.42
2023-04-21T22:26:43.967Z,2.22
2023-04-21T22:29:10.986Z,3.08
2023-04-21T22:31:38.304Z,2.38
2023-04-21T22:34:05.576Z,2.63
2023-04-21T22:36:32.808Z,2.95
2023-04-21T22:38:59.868Z,2.80
2023-04-21T22:41:27.501Z,3.20
2023-04-21T22:43:54.565Z,2.90
2023-04-21T22:46:21.685Z,2.75
2023-04-21T22:48:51.345Z,3.20
2023-04-21T22:51:21.244Z,3.03
2023-04-21T22:53:48.338Z,3.03
2023-04-21T22:56:15.482Z,3.00
2023-04-21T22:58:43.212Z,2.45
2023-04-21T23:01:10.301Z,2.33
2023-04-21T23:03:37.429Z,2.85
2023-04-21T23:06:04.619Z,2.67
2023-04-21T23:08:31.649Z,2.70
2023-04-21T23:10:58.751Z,3.35
2023-04-21T23:13:25.894Z,3.20
2023-04-21T23:15:53.018Z,2.90
2023-04-21T23:18:20.221Z,7.70
2023-04-21T23:20:47.333Z,21.90
2023-04-21T23:23:14.350Z,5.22
2023-04-21T23:25:41.370Z,3.95
2023-04-21T23:28:08.406Z,3.63
2023-04-21T23:30:35.526Z,2.85
2023-04-21T23:33:02.777Z,2.42
2023-04-21T23:35:29.922Z,2.88
2023-04-21T23:37:56.960Z,2.85
2023-04-21T23:40:24.057Z,3.13
2023-04-21T23:42:51.161Z,2.50
2023-04-21T23:45:18.260Z,3.10
2023-04-21T23:47:45.787Z,2.40
2023-04-21T23:50:12.993Z,2.83
2023-04-21T23:52:42.105Z,3.00
2023-04-21T23:55:10.250Z,2.97
2023-04-21T23:57:38.099Z,3.15
